Sim-Planet VA

Sim-Planet Nouvel Horizon. By: Anthony Pay
Since 2020.




 METAR ET TAF INFORMATION
METAR FOR OKBK
ADDS - METARS form results

(1356 UTC 09 December 2021)
Data provider http://aviationweather.gov/metar/data/
 
METAR text: OKBK 091300Z 13011KT CAVOK 24/12 Q1019 NOSIG
Conditions at: OKBK (KUWAIT INTL (MIL, KW) observed 1300 UTC 09 December 2021
Temperature: 24.0°C (75°F)
Dewpoint: 12.0°C (54°F) [RH = 47%]
Pressure (altimeter): 30.09 inches Hg (1019.0 mb)
Winds: from the SE (130 degrees) at 13 MPH (11 knots; 5.7 m/s)
Visibility: 6 or more miles (10+ km)
Ceiling: ceiling and visibility are OK
Clouds: unknown
Weather: no significant weather observed at this time

METAR text: OKBK 091259Z 13011KT CAVOK 24/12 Q1019 NOSIG
Conditions at: OKBK (KUWAIT INTL (MIL, KW) observed 1259 UTC 09 December 2021
Temperature: 24.0°C (75°F)
Dewpoint: 12.0°C (54°F) [RH = 47%]
Pressure (altimeter): 30.09 inches Hg (1019.0 mb)
Winds: from the SE (130 degrees) at 13 MPH (11 knots; 5.7 m/s)
Visibility: 6 or more miles (10+ km)
Ceiling: ceiling and visibility are OK
Clouds: unknown
Weather: no significant weather observed at this time

Forecast for: OKBK (KUWAIT INTL (MIL, KW)
Text: TAF OKBK 091045Z 0912/1018 34008G18KT 7000 NSC
Forecast period: 1200 UTC 09 December 2021 to 1800 UTC 10 December 2021
Forecast type: FROM: standard forecast or significant change
Winds: from the NNW (340 degrees) at 9 MPH (8 knots; 4.1 m/s)
gusting to 21 MPH (18 knots; 9.3 m/s)
Visibility: 4 miles (7 km)
Ceiling: unknown
Clouds: missing
Weather: no significant weather forecast for this period

 AÉROPORT DE AÉROPORT

 INFORMATIONS DE PISTE
Piste 15L Longueur de la piste 11483 ft Largeur de la piste 148 ft
Élévation de la piste 161 ft Seuil de la piste déplacés 0 ft Runway heading 155
Piste 33R Longueur de la piste 11483 ft Largeur de la piste 148 ft
Élévation de la piste 206 ft Seuil de la piste déplacés 0 ft Runway heading 335
Piste 15R Longueur de la piste 11155 ft Largeur de la piste 148 ft
Élévation de la piste 134 ft Seuil de la piste déplacés 0 ft Runway heading 155
Piste 33L Longueur de la piste 11155 ft Largeur de la piste 148 ft
Élévation de la piste 170 ft Seuil de la piste déplacés 0 ft Runway heading 335

 AÉROPORT FRÉQUENCES
Type APP Nom APP Féquence 121.3 MHZ
Type ATIS Nom ATIS Féquence 126.225 MHZ
Type GND Nom GND Féquence 121.7 MHZ
Type TWR Nom TWR Féquence 118.3 MHZ

 SIDA DE NAVIGATION
Type VOR-DME Nom Kuwait Féquence 115500 KHZ

Nos Partenaires